sensor_id;sensor_type;location;lat;lon;timestamp;P1;durP1;ratioP1;P2;durP2;ratioP2
23682;SDS011;24897;53.514;10.482;2023-09-30T00:00:45;46.50;;;31.80;;
23682;SDS011;24897;53.514;10.482;2023-09-30T00:03:29;49.00;;;29.70;;
23682;SDS011;24897;53.514;10.482;2023-09-30T00:06:13;54.63;;;32.70;;
23682;SDS011;24897;53.514;10.482;2023-09-30T00:08:57;49.97;;;32.80;;
23682;SDS011;24897;53.514;10.482;2023-09-30T00:11:41;49.27;;;31.93;;
23682;SDS011;24897;53.514;10.482;2023-09-30T00:14:25;53.33;;;33.60;;
23682;SDS011;24897;53.514;10.482;2023-09-30T00:17:09;46.20;;;31.40;;
23682;SDS011;24897;53.514;10.482;2023-09-30T00:19:53;56.23;;;33.37;;
23682;SDS011;24897;53.514;10.482;2023-09-30T00:22:37;53.07;;;34.60;;
23682;SDS011;24897;53.514;10.482;2023-09-30T00:25:22;52.63;;;32.33;;
23682;SDS011;24897;53.514;10.482;2023-09-30T00:28:06;49.37;;;31.10;;
23682;SDS011;24897;53.514;10.482;2023-09-30T00:30:50;51.73;;;34.27;;
23682;SDS011;24897;53.514;10.482;2023-09-30T00:33:34;50.43;;;31.03;;
23682;SDS011;24897;53.514;10.482;2023-09-30T00:36:18;46.40;;;29.20;;
23682;SDS011;24897;53.514;10.482;2023-09-30T00:39:02;49.33;;;30.17;;
23682;SDS011;24897;53.514;10.482;2023-09-30T00:41:47;54.23;;;30.70;;
23682;SDS011;24897;53.514;10.482;2023-09-30T00:44:31;46.97;;;30.20;;
23682;SDS011;24897;53.514;10.482;2023-09-30T00:47:16;46.87;;;29.50;;
23682;SDS011;24897;53.514;10.482;2023-09-30T00:50:00;54.60;;;34.93;;
23682;SDS011;24897;53.514;10.482;2023-09-30T00:52:46;45.10;;;30.47;;
23682;SDS011;24897;53.514;10.482;2023-09-30T00:55:32;53.43;;;29.10;;
23682;SDS011;24897;53.514;10.482;2023-09-30T00:58:17;48.50;;;28.10;;
23682;SDS011;24897;53.514;10.482;2023-09-30T01:01:01;48.80;;;28.90;;
23682;SDS011;24897;53.514;10.482;2023-09-30T01:03:45;47.03;;;31.00;;
23682;SDS011;24897;53.514;10.482;2023-09-30T01:06:30;50.43;;;34.23;;
23682;SDS011;24897;53.514;10.482;2023-09-30T01:09:14;51.53;;;31.13;;
23682;SDS011;24897;53.514;10.482;2023-09-30T01:11:59;49.37;;;30.57;;
23682;SDS011;24897;53.514;10.482;2023-09-30T01:14:43;57.03;;;34.60;;
23682;SDS011;24897;53.514;10.482;2023-09-30T01:17:27;52.87;;;30.37;;
23682;SDS011;24897;53.514;10.482;2023-09-30T01:20:13;47.83;;;31.00;;
23682;SDS011;24897;53.514;10.482;2023-09-30T01:23:00;48.17;;;28.83;;
23682;SDS011;24897;53.514;10.482;2023-09-30T01:25:45;47.80;;;30.90;;
23682;SDS011;24897;53.514;10.482;2023-09-30T01:28:29;49.17;;;33.03;;
23682;SDS011;24897;53.514;10.482;2023-09-30T01:31:14;56.00;;;32.90;;
23682;SDS011;24897;53.514;10.482;2023-09-30T01:33:59;49.83;;;31.27;;
23682;SDS011;24897;53.514;10.482;2023-09-30T01:36:43;54.43;;;32.70;;
23682;SDS011;24897;53.514;10.482;2023-09-30T01:39:27;48.63;;;32.20;;
23682;SDS011;24897;53.514;10.482;2023-09-30T01:42:13;47.87;;;32.53;;
23682;SDS011;24897;53.514;10.482;2023-09-30T01:44:58;44.67;;;29.93;;
23682;SDS011;24897;53.514;10.482;2023-09-30T01:47:42;50.63;;;32.60;;
23682;SDS011;24897;53.514;10.482;2023-09-30T01:50:26;56.87;;;31.93;;
23682;SDS011;24897;53.514;10.482;2023-09-30T01:53:10;45.60;;;28.17;;
23682;SDS011;24897;53.514;10.482;2023-09-30T01:55:54;53.27;;;30.97;;
23682;SDS011;24897;53.514;10.482;2023-09-30T01:58:38;44.67;;;29.07;;
23682;SDS011;24897;53.514;10.482;2023-09-30T02:01:22;52.90;;;32.23;;
23682;SDS011;24897;53.514;10.482;2023-09-30T02:04:06;48.87;;;32.90;;
23682;SDS011;24897;53.514;10.482;2023-09-30T02:06:50;48.40;;;30.90;;
23682;SDS011;24897;53.514;10.482;2023-09-30T02:09:34;47.30;;;32.17;;
23682;SDS011;24897;53.514;10.482;2023-09-30T02:12:19;50.40;;;31.33;;
23682;SDS011;24897;53.514;10.482;2023-09-30T02:15:04;56.00;;;34.63;;
23682;SDS011;24897;53.514;10.482;2023-09-30T02:17:50;49.37;;;29.97;;
23682;SDS011;24897;53.514;10.482;2023-09-30T02:20:39;50.93;;;31.50;;
23682;SDS011;24897;53.514;10.482;2023-09-30T02:23:24;45.83;;;29.53;;
23682;SDS011;24897;53.514;10.482;2023-09-30T02:26:08;46.97;;;28.77;;
23682;SDS011;24897;53.514;10.482;2023-09-30T02:28:52;51.77;;;33.33;;
23682;SDS011;24897;53.514;10.482;2023-09-30T02:31:37;54.60;;;31.63;;
23682;SDS011;24897;53.514;10.482;2023-09-30T02:34:21;55.27;;;32.07;;
23682;SDS011;24897;53.514;10.482;2023-09-30T02:37:05;58.37;;;33.50;;
23682;SDS011;24897;53.514;10.482;2023-09-30T02:39:50;43.13;;;28.60;;
23682;SDS011;24897;53.514;10.482;2023-09-30T02:42:35;47.43;;;30.60;;
23682;SDS011;24897;53.514;10.482;2023-09-30T02:45:20;53.57;;;29.30;;
23682;SDS011;24897;53.514;10.482;2023-09-30T02:48:04;50.37;;;29.43;;
23682;SDS011;24897;53.514;10.482;2023-09-30T02:50:50;50.30;;;30.77;;
23682;SDS011;24897;53.514;10.482;2023-09-30T02:53:34;51.47;;;28.83;;
23682;SDS011;24897;53.514;10.482;2023-09-30T02:56:18;50.53;;;30.23;;
23682;SDS011;24897;53.514;10.482;2023-09-30T02:59:03;49.63;;;31.00;;
23682;SDS011;24897;53.514;10.482;2023-09-30T03:01:47;52.60;;;31.47;;
23682;SDS011;24897;53.514;10.482;2023-09-30T03:04:31;53.53;;;31.63;;
23682;SDS011;24897;53.514;10.482;2023-09-30T03:07:17;48.83;;;30.63;;
23682;SDS011;24897;53.514;10.482;2023-09-30T03:10:03;52.80;;;31.10;;
23682;SDS011;24897;53.514;10.482;2023-09-30T03:12:47;56.90;;;30.63;;
23682;SDS011;24897;53.514;10.482;2023-09-30T03:15:32;46.57;;;27.93;;
23682;SDS011;24897;53.514;10.482;2023-09-30T03:18:17;51.27;;;30.57;;
23682;SDS011;24897;53.514;10.482;2023-09-30T03:21:01;52.83;;;31.20;;
23682;SDS011;24897;53.514;10.482;2023-09-30T03:23:52;49.73;;;30.13;;
23682;SDS011;24897;53.514;10.482;2023-09-30T03:26:36;64.50;;;40.57;;
23682;SDS011;24897;53.514;10.482;2023-09-30T03:29:20;52.57;;;33.97;;
23682;SDS011;24897;53.514;10.482;2023-09-30T03:32:04;64.73;;;39.20;;
23682;SDS011;24897;53.514;10.482;2023-09-30T03:34:48;63.30;;;37.40;;
23682;SDS011;24897;53.514;10.482;2023-09-30T03:37:33;66.13;;;40.33;;
23682;SDS011;24897;53.514;10.482;2023-09-30T03:40:18;56.57;;;37.20;;
23682;SDS011;24897;53.514;10.482;2023-09-30T03:43:03;61.47;;;36.43;;
23682;SDS011;24897;53.514;10.482;2023-09-30T03:45:49;61.27;;;39.50;;
23682;SDS011;24897;53.514;10.482;2023-09-30T03:48:33;58.13;;;37.83;;
23682;SDS011;24897;53.514;10.482;2023-09-30T03:51:23;65.63;;;38.60;;
23682;SDS011;24897;53.514;10.482;2023-09-30T03:54:08;59.50;;;36.87;;
23682;SDS011;24897;53.514;10.482;2023-09-30T03:56:52;64.77;;;40.03;;
23682;SDS011;24897;53.514;10.482;2023-09-30T03:59:36;57.83;;;36.63;;
23682;SDS011;24897;53.514;10.482;2023-09-30T04:02:20;68.03;;;37.33;;
23682;SDS011;24897;53.514;10.482;2023-09-30T04:05:05;64.73;;;41.17;;
23682;SDS011;24897;53.514;10.482;2023-09-30T04:07:50;57.27;;;35.57;;
23682;SDS011;24897;53.514;10.482;2023-09-30T04:10:35;63.50;;;39.63;;
23682;SDS011;24897;53.514;10.482;2023-09-30T04:13:19;62.67;;;40.47;;
23682;SDS011;24897;53.514;10.482;2023-09-30T04:16:05;61.43;;;38.83;;
23682;SDS011;24897;53.514;10.482;2023-09-30T04:18:49;60.40;;;38.10;;
23682;SDS011;24897;53.514;10.482;2023-09-30T04:21:34;59.30;;;34.80;;
23682;SDS011;24897;53.514;10.482;2023-09-30T04:24:18;61.87;;;40.43;;
23682;SDS011;24897;53.514;10.482;2023-09-30T04:27:03;70.40;;;38.97;;
23682;SDS011;24897;53.514;10.482;2023-09-30T04:29:49;61.60;;;38.13;;
23682;SDS011;24897;53.514;10.482;2023-09-30T04:32:35;64.27;;;39.13;;
23682;SDS011;24897;53.514;10.482;2023-09-30T04:35:20;69.43;;;41.87;;
23682;SDS011;24897;53.514;10.482;2023-09-30T04:38:05;58.43;;;36.80;;
23682;SDS011;24897;53.514;10.482;2023-09-30T04:40:50;62.67;;;39.43;;
23682;SDS011;24897;53.514;10.482;2023-09-30T04:43:34;66.10;;;38.10;;
23682;SDS011;24897;53.514;10.482;2023-09-30T04:46:21;69.03;;;40.30;;
23682;SDS011;24897;53.514;10.482;2023-09-30T04:49:07;68.43;;;39.83;;
23682;SDS011;24897;53.514;10.482;2023-09-30T04:51:52;58.30;;;34.23;;
23682;SDS011;24897;53.514;10.482;2023-09-30T04:54:36;67.20;;;36.77;;
23682;SDS011;24897;53.514;10.482;2023-09-30T04:57:20;58.20;;;36.90;;
23682;SDS011;24897;53.514;10.482;2023-09-30T05:00:05;58.83;;;37.33;;
23682;SDS011;24897;53.514;10.482;2023-09-30T05:02:55;60.23;;;39.07;;
23682;SDS011;24897;53.514;10.482;2023-09-30T05:05:39;64.00;;;40.80;;
23682;SDS011;24897;53.514;10.482;2023-09-30T05:08:23;63.20;;;41.00;;
23682;SDS011;24897;53.514;10.482;2023-09-30T05:11:08;57.67;;;37.23;;
23682;SDS011;24897;53.514;10.482;2023-09-30T05:13:52;64.23;;;42.53;;
23682;SDS011;24897;53.514;10.482;2023-09-30T05:16:36;63.83;;;39.23;;
23682;SDS011;24897;53.514;10.482;2023-09-30T05:19:20;62.40;;;41.43;;
23682;SDS011;24897;53.514;10.482;2023-09-30T05:22:04;60.33;;;43.00;;
23682;SDS011;24897;53.514;10.482;2023-09-30T05:24:50;61.30;;;39.93;;
23682;SDS011;24897;53.514;10.482;2023-09-30T05:27:36;67.30;;;42.30;;
23682;SDS011;24897;53.514;10.482;2023-09-30T05:30:21;66.17;;;41.77;;
23682;SDS011;24897;53.514;10.482;2023-09-30T05:33:05;53.83;;;33.47;;
23682;SDS011;24897;53.514;10.482;2023-09-30T05:35:50;63.13;;;39.97;;
23682;SDS011;24897;53.514;10.482;2023-09-30T05:38:35;59.63;;;37.57;;
23682;SDS011;24897;53.514;10.482;2023-09-30T05:41:19;65.40;;;39.00;;
23682;SDS011;24897;53.514;10.482;2023-09-30T05:44:04;61.50;;;39.97;;
23682;SDS011;24897;53.514;10.482;2023-09-30T05:46:49;61.57;;;45.23;;
23682;SDS011;24897;53.514;10.482;2023-09-30T05:49:33;64.50;;;39.97;;
23682;SDS011;24897;53.514;10.482;2023-09-30T05:52:17;65.70;;;42.83;;
23682;SDS011;24897;53.514;10.482;2023-09-30T05:55:02;60.10;;;41.50;;
23682;SDS011;24897;53.514;10.482;2023-09-30T05:57:47;67.63;;;41.60;;
23682;SDS011;24897;53.514;10.482;2023-09-30T06:00:33;51.80;;;36.50;;
23682;SDS011;24897;53.514;10.482;2023-09-30T06:03:18;60.27;;;38.40;;
23682;SDS011;24897;53.514;10.482;2023-09-30T06:06:14;66.53;;;36.70;;
23682;SDS011;24897;53.514;10.482;2023-09-30T06:08:59;60.70;;;39.07;;
23682;SDS011;24897;53.514;10.482;2023-09-30T06:11:44;57.13;;;36.33;;
23682;SDS011;24897;53.514;10.482;2023-09-30T06:14:28;56.47;;;34.00;;
23682;SDS011;24897;53.514;10.482;2023-09-30T06:17:14;54.37;;;35.20;;
23682;SDS011;24897;53.514;10.482;2023-09-30T06:19:58;53.33;;;33.20;;
23682;SDS011;24897;53.514;10.482;2023-09-30T06:22:51;53.70;;;34.57;;
23682;SDS011;24897;53.514;10.482;2023-09-30T06:25:37;52.57;;;35.27;;
23682;SDS011;24897;53.514;10.482;2023-09-30T06:28:23;54.07;;;36.33;;
23682;SDS011;24897;53.514;10.482;2023-09-30T06:31:09;58.77;;;35.87;;
23682;SDS011;24897;53.514;10.482;2023-09-30T06:33:54;51.47;;;35.90;;
23682;SDS011;24897;53.514;10.482;2023-09-30T06:36:42;50.33;;;30.20;;
23682;SDS011;24897;53.514;10.482;2023-09-30T06:39:26;60.33;;;37.20;;
23682;SDS011;24897;53.514;10.482;2023-09-30T06:42:10;54.50;;;32.77;;
23682;SDS011;24897;53.514;10.482;2023-09-30T06:44:54;58.00;;;36.03;;
23682;SDS011;24897;53.514;10.482;2023-09-30T06:47:39;56.43;;;38.57;;
23682;SDS011;24897;53.514;10.482;2023-09-30T06:50:24;60.03;;;39.13;;
23682;SDS011;24897;53.514;10.482;2023-09-30T06:53:09;52.83;;;34.20;;
23682;SDS011;24897;53.514;10.482;2023-09-30T06:55:53;57.77;;;37.97;;
23682;SDS011;24897;53.514;10.482;2023-09-30T06:58:38;54.20;;;36.67;;
23682;SDS011;24897;53.514;10.482;2023-09-30T07:01:22;59.77;;;38.80;;
23682;SDS011;24897;53.514;10.482;2023-09-30T07:04:06;53.77;;;35.73;;
23682;SDS011;24897;53.514;10.482;2023-09-30T07:06:50;53.47;;;35.83;;
23682;SDS011;24897;53.514;10.482;2023-09-30T07:09:36;53.57;;;35.07;;
23682;SDS011;24897;53.514;10.482;2023-09-30T07:12:20;50.33;;;34.57;;
23682;SDS011;24897;53.514;10.482;2023-09-30T07:15:04;55.37;;;35.83;;
23682;SDS011;24897;53.514;10.482;2023-09-30T07:17:50;54.10;;;34.57;;
23682;SDS011;24897;53.514;10.482;2023-09-30T07:20:34;51.47;;;34.80;;
23682;SDS011;24897;53.514;10.482;2023-09-30T07:23:19;45.27;;;32.30;;
23682;SDS011;24897;53.514;10.482;2023-09-30T07:26:04;50.50;;;33.70;;
23682;SDS011;24897;53.514;10.482;2023-09-30T07:28:48;50.90;;;32.90;;
23682;SDS011;24897;53.514;10.482;2023-09-30T07:31:35;41.67;;;28.63;;
23682;SDS011;24897;53.514;10.482;2023-09-30T07:34:19;41.73;;;29.13;;
23682;SDS011;24897;53.514;10.482;2023-09-30T07:37:03;43.53;;;30.93;;
23682;SDS011;24897;53.514;10.482;2023-09-30T07:39:47;53.23;;;31.33;;
23682;SDS011;24897;53.514;10.482;2023-09-30T07:42:31;43.97;;;30.03;;
23682;SDS011;24897;53.514;10.482;2023-09-30T07:45:16;44.93;;;32.17;;
23682;SDS011;24897;53.514;10.482;2023-09-30T07:48:01;38.53;;;28.63;;
23682;SDS011;24897;53.514;10.482;2023-09-30T07:50:48;38.53;;;27.13;;
23682;SDS011;24897;53.514;10.482;2023-09-30T07:53:32;46.63;;;29.80;;
23682;SDS011;24897;53.514;10.482;2023-09-30T07:56:16;39.50;;;27.83;;
23682;SDS011;24897;53.514;10.482;2023-09-30T07:59:00;36.90;;;27.50;;
23682;SDS011;24897;53.514;10.482;2023-09-30T08:01:47;38.33;;;29.00;;
23682;SDS011;24897;53.514;10.482;2023-09-30T08:04:32;39.27;;;29.10;;
23682;SDS011;24897;53.514;10.482;2023-09-30T08:07:16;36.87;;;27.50;;
23682;SDS011;24897;53.514;10.482;2023-09-30T08:10:00;36.60;;;27.97;;
23682;SDS011;24897;53.514;10.482;2023-09-30T08:12:48;37.67;;;27.27;;
23682;SDS011;24897;53.514;10.482;2023-09-30T08:15:33;36.50;;;27.30;;
23682;SDS011;24897;53.514;10.482;2023-09-30T08:18:19;31.83;;;25.90;;
23682;SDS011;24897;53.514;10.482;2023-09-30T08:21:03;33.73;;;26.40;;
23682;SDS011;24897;53.514;10.482;2023-09-30T08:23:48;34.53;;;27.93;;
23682;SDS011;24897;53.514;10.482;2023-09-30T08:26:32;32.97;;;27.07;;
23682;SDS011;24897;53.514;10.482;2023-09-30T08:29:17;29.47;;;26.37;;
23682;SDS011;24897;53.514;10.482;2023-09-30T08:32:02;34.90;;;25.20;;
23682;SDS011;24897;53.514;10.482;2023-09-30T08:34:46;30.93;;;27.63;;
23682;SDS011;24897;53.514;10.482;2023-09-30T08:37:31;28.73;;;25.60;;
23682;SDS011;24897;53.514;10.482;2023-09-30T08:40:22;34.00;;;25.87;;
23682;SDS011;24897;53.514;10.482;2023-09-30T08:43:06;30.50;;;26.53;;
23682;SDS011;24897;53.514;10.482;2023-09-30T08:45:56;29.87;;;26.07;;
23682;SDS011;24897;53.514;10.482;2023-09-30T08:48:40;30.20;;;25.00;;
23682;SDS011;24897;53.514;10.482;2023-09-30T08:51:25;30.37;;;24.30;;
23682;SDS011;24897;53.514;10.482;2023-09-30T08:54:09;24.93;;;22.30;;
23682;SDS011;24897;53.514;10.482;2023-09-30T08:56:53;32.87;;;23.63;;
23682;SDS011;24897;53.514;10.482;2023-09-30T08:59:38;25.40;;;22.80;;
23682;SDS011;24897;53.514;10.482;2023-09-30T09:02:25;26.47;;;23.87;;
23682;SDS011;24897;53.514;10.482;2023-09-30T09:05:09;26.00;;;22.73;;
23682;SDS011;24897;53.514;10.482;2023-09-30T09:07:54;26.33;;;23.60;;
23682;SDS011;24897;53.514;10.482;2023-09-30T09:10:57;25.50;;;22.40;;
23682;SDS011;24897;53.514;10.482;2023-09-30T09:13:46;24.57;;;21.43;;
23682;SDS011;24897;53.514;10.482;2023-09-30T09:16:52;23.47;;;20.93;;
23682;SDS011;24897;53.514;10.482;2023-09-30T09:19:40;21.60;;;18.97;;
23682;SDS011;24897;53.514;10.482;2023-09-30T09:22:25;24.87;;;21.70;;
23682;SDS011;24897;53.514;10.482;2023-09-30T09:25:22;23.10;;;20.63;;
23682;SDS011;24897;53.514;10.482;2023-09-30T09:28:07;22.37;;;19.97;;
23682;SDS011;24897;53.514;10.482;2023-09-30T09:30:51;22.30;;;19.87;;
23682;SDS011;24897;53.514;10.482;2023-09-30T09:33:35;25.43;;;20.60;;
23682;SDS011;24897;53.514;10.482;2023-09-30T09:36:37;22.23;;;19.93;;
23682;SDS011;24897;53.514;10.482;2023-09-30T09:39:29;26.17;;;18.53;;
23682;SDS011;24897;53.514;10.482;2023-09-30T09:42:32;23.90;;;19.37;;
23682;SDS011;24897;53.514;10.482;2023-09-30T09:45:18;21.17;;;18.07;;
23682;SDS011;24897;53.514;10.482;2023-09-30T09:48:03;20.73;;;18.33;;
23682;SDS011;24897;53.514;10.482;2023-09-30T09:50:48;22.23;;;18.57;;
23682;SDS011;24897;53.514;10.482;2023-09-30T09:53:35;21.30;;;19.00;;
23682;SDS011;24897;53.514;10.482;2023-09-30T09:56:20;21.20;;;18.80;;
23682;SDS011;24897;53.514;10.482;2023-09-30T09:59:06;23.33;;;17.93;;
23682;SDS011;24897;53.514;10.482;2023-09-30T10:01:52;21.90;;;17.40;;
23682;SDS011;24897;53.514;10.482;2023-09-30T10:04:37;21.40;;;18.57;;
23682;SDS011;24897;53.514;10.482;2023-09-30T10:07:22;21.90;;;18.17;;
23682;SDS011;24897;53.514;10.482;2023-09-30T10:10:12;24.40;;;19.03;;
23682;SDS011;24897;53.514;10.482;2023-09-30T10:12:59;21.50;;;18.33;;
23682;SDS011;24897;53.514;10.482;2023-09-30T10:15:43;25.77;;;17.73;;
23682;SDS011;24897;53.514;10.482;2023-09-30T10:18:27;21.80;;;17.83;;
23682;SDS011;24897;53.514;10.482;2023-09-30T10:21:11;18.63;;;16.33;;
23682;SDS011;24897;53.514;10.482;2023-09-30T10:24:27;23.97;;;16.10;;
23682;SDS011;24897;53.514;10.482;2023-09-30T10:30:06;20.73;;;16.87;;
23682;SDS011;24897;53.514;10.482;2023-09-30T10:35:45;20.97;;;16.20;;
23682;SDS011;24897;53.514;10.482;2023-09-30T10:47:34;21.37;;;17.30;;
23682;SDS011;24897;53.514;10.482;2023-09-30T10:53:33;21.00;;;15.80;;
23682;SDS011;24897;53.514;10.482;2023-09-30T10:56:20;18.20;;;16.30;;
23682;SDS011;24897;53.514;10.482;2023-09-30T10:59:05;17.33;;;15.03;;
23682;SDS011;24897;53.514;10.482;2023-09-30T11:01:50;18.57;;;15.40;;
23682;SDS011;24897;53.514;10.482;2023-09-30T11:04:47;16.40;;;14.80;;
23682;SDS011;24897;53.514;10.482;2023-09-30T11:07:31;16.97;;;14.47;;
23682;SDS011;24897;53.514;10.482;2023-09-30T11:10:18;17.33;;;14.00;;
23682;SDS011;24897;53.514;10.482;2023-09-30T11:13:03;17.63;;;15.10;;
23682;SDS011;24897;53.514;10.482;2023-09-30T11:15:47;16.07;;;14.57;;
23682;SDS011;24897;53.514;10.482;2023-09-30T11:18:43;16.80;;;14.07;;
23682;SDS011;24897;53.514;10.482;2023-09-30T11:21:27;16.50;;;14.17;;
23682;SDS011;24897;53.514;10.482;2023-09-30T11:24:13;16.73;;;14.73;;
23682;SDS011;24897;53.514;10.482;2023-09-30T11:26:58;18.17;;;14.40;;
23682;SDS011;24897;53.514;10.482;2023-09-30T11:29:51;17.57;;;13.87;;
23682;SDS011;24897;53.514;10.482;2023-09-30T11:32:35;16.10;;;14.40;;
23682;SDS011;24897;53.514;10.482;2023-09-30T11:35:23;18.50;;;14.43;;
23682;SDS011;24897;53.514;10.482;2023-09-30T11:38:07;20.93;;;15.40;;
23682;SDS011;24897;53.514;10.482;2023-09-30T11:41:02;17.53;;;15.67;;
23682;SDS011;24897;53.514;10.482;2023-09-30T11:44:09;17.43;;;15.67;;
23682;SDS011;24897;53.514;10.482;2023-09-30T11:46:56;17.47;;;15.63;;
23682;SDS011;24897;53.514;10.482;2023-09-30T11:49:43;17.87;;;16.00;;
23682;SDS011;24897;53.514;10.482;2023-09-30T11:52:32;18.37;;;16.40;;
23682;SDS011;24897;53.514;10.482;2023-09-30T11:55:15;18.53;;;16.60;;
23682;SDS011;24897;53.514;10.482;2023-09-30T11:58:00;17.03;;;15.30;;
23682;SDS011;24897;53.514;10.482;2023-09-30T12:00:44;17.20;;;15.40;;
23682;SDS011;24897;53.514;10.482;2023-09-30T12:03:29;17.13;;;15.47;;
23682;SDS011;24897;53.514;10.482;2023-09-30T12:06:13;17.37;;;15.37;;
23682;SDS011;24897;53.514;10.482;2023-09-30T12:08:59;19.97;;;16.70;;
23682;SDS011;24897;53.514;10.482;2023-09-30T12:11:43;18.57;;;16.70;;
23682;SDS011;24897;53.514;10.482;2023-09-30T12:14:27;18.33;;;16.47;;
23682;SDS011;24897;53.514;10.482;2023-09-30T12:17:14;17.43;;;15.63;;
23682;SDS011;24897;53.514;10.482;2023-09-30T12:19:58;17.27;;;15.40;;
23682;SDS011;24897;53.514;10.482;2023-09-30T12:22:43;17.27;;;15.63;;
23682;SDS011;24897;53.514;10.482;2023-09-30T12:25:27;17.27;;;15.50;;
23682;SDS011;24897;53.514;10.482;2023-09-30T12:28:13;18.50;;;15.63;;
23682;SDS011;24897;53.514;10.482;2023-09-30T12:30:59;19.53;;;16.13;;
23682;SDS011;24897;53.514;10.482;2023-09-30T12:33:46;21.33;;;16.50;;
23682;SDS011;24897;53.514;10.482;2023-09-30T12:36:34;18.40;;;16.47;;
23682;SDS011;24897;53.514;10.482;2023-09-30T12:39:18;17.97;;;16.07;;
23682;SDS011;24897;53.514;10.482;2023-09-30T12:42:07;17.73;;;15.53;;
23682;SDS011;24897;53.514;10.482;2023-09-30T12:44:53;17.63;;;15.70;;
23682;SDS011;24897;53.514;10.482;2023-09-30T12:47:37;17.10;;;15.40;;
23682;SDS011;24897;53.514;10.482;2023-09-30T12:50:22;17.90;;;16.20;;
23682;SDS011;24897;53.514;10.482;2023-09-30T12:53:06;16.80;;;15.20;;
23682;SDS011;24897;53.514;10.482;2023-09-30T12:55:50;22.70;;;15.80;;
23682;SDS011;24897;53.514;10.482;2023-09-30T12:58:34;17.20;;;15.50;;
23682;SDS011;24897;53.514;10.482;2023-09-30T13:01:19;19.67;;;15.80;;
23682;SDS011;24897;53.514;10.482;2023-09-30T13:04:03;17.97;;;16.07;;
23682;SDS011;24897;53.514;10.482;2023-09-30T13:06:51;17.30;;;15.60;;
23682;SDS011;24897;53.514;10.482;2023-09-30T13:09:36;19.35;;;15.23;;
23682;SDS011;24897;53.514;10.482;2023-09-30T13:12:24;18.77;;;15.53;;
23682;SDS011;24897;53.514;10.482;2023-09-30T13:15:10;17.47;;;15.30;;
23682;SDS011;24897;53.514;10.482;2023-09-30T13:17:54;16.60;;;15.07;;
23682;SDS011;24897;53.514;10.482;2023-09-30T13:20:40;17.80;;;15.93;;
23682;SDS011;24897;53.514;10.482;2023-09-30T13:23:24;19.43;;;15.60;;
23682;SDS011;24897;53.514;10.482;2023-09-30T13:26:10;17.40;;;15.70;;
23682;SDS011;24897;53.514;10.482;2023-09-30T13:28:55;17.87;;;15.50;;
23682;SDS011;24897;53.514;10.482;2023-09-30T13:31:39;16.97;;;15.30;;
23682;SDS011;24897;53.514;10.482;2023-09-30T13:34:23;16.90;;;15.37;;
23682;SDS011;24897;53.514;10.482;2023-09-30T13:37:08;16.87;;;15.17;;
23682;SDS011;24897;53.514;10.482;2023-09-30T13:39:52;17.07;;;15.47;;
23682;SDS011;24897;53.514;10.482;2023-09-30T13:42:36;17.27;;;15.57;;
23682;SDS011;24897;53.514;10.482;2023-09-30T13:45:20;17.03;;;15.20;;
23682;SDS011;24897;53.514;10.482;2023-09-30T13:48:04;17.20;;;15.50;;
23682;SDS011;24897;53.514;10.482;2023-09-30T13:50:50;17.47;;;15.73;;
23682;SDS011;24897;53.514;10.482;2023-09-30T13:53:34;17.33;;;15.73;;
23682;SDS011;24897;53.514;10.482;2023-09-30T13:56:19;17.00;;;15.37;;
23682;SDS011;24897;53.514;10.482;2023-09-30T13:59:03;18.10;;;16.30;;
23682;SDS011;24897;53.514;10.482;2023-09-30T14:01:48;18.30;;;16.37;;
23682;SDS011;24897;53.514;10.482;2023-09-30T14:04:32;18.03;;;16.13;;
23682;SDS011;24897;53.514;10.482;2023-09-30T14:07:16;17.90;;;16.00;;
23682;SDS011;24897;53.514;10.482;2023-09-30T14:10:03;19.37;;;15.83;;
23682;SDS011;24897;53.514;10.482;2023-09-30T14:12:49;18.10;;;16.20;;
23682;SDS011;24897;53.514;10.482;2023-09-30T14:15:33;19.33;;;16.50;;
23682;SDS011;24897;53.514;10.482;2023-09-30T14:18:18;18.37;;;16.50;;
23682;SDS011;24897;53.514;10.482;2023-09-30T14:21:02;21.33;;;16.27;;
23682;SDS011;24897;53.514;10.482;2023-09-30T14:23:46;17.97;;;16.27;;
23682;SDS011;24897;53.514;10.482;2023-09-30T14:26:30;36.90;;;27.17;;
23682;SDS011;24897;53.514;10.482;2023-09-30T14:29:15;23.57;;;21.03;;
23682;SDS011;24897;53.514;10.482;2023-09-30T14:31:59;18.40;;;16.50;;
23682;SDS011;24897;53.514;10.482;2023-09-30T14:34:43;17.53;;;15.93;;
23682;SDS011;24897;53.514;10.482;2023-09-30T14:37:27;18.57;;;15.97;;
23682;SDS011;24897;53.514;10.482;2023-09-30T14:40:13;18.67;;;15.93;;
23682;SDS011;24897;53.514;10.482;2023-09-30T14:42:57;21.57;;;15.67;;
23682;SDS011;24897;53.514;10.482;2023-09-30T14:45:41;17.60;;;15.90;;
23682;SDS011;24897;53.514;10.482;2023-09-30T14:48:25;20.07;;;16.27;;
23682;SDS011;24897;53.514;10.482;2023-09-30T14:51:10;20.13;;;16.33;;
23682;SDS011;24897;53.514;10.482;2023-09-30T14:53:54;17.93;;;16.13;;
23682;SDS011;24897;53.514;10.482;2023-09-30T14:56:38;18.93;;;16.37;;
23682;SDS011;24897;53.514;10.482;2023-09-30T14:59:22;19.33;;;16.00;;
23682;SDS011;24897;53.514;10.482;2023-09-30T15:02:06;16.90;;;15.40;;
23682;SDS011;24897;53.514;10.482;2023-09-30T15:04:54;18.17;;;16.33;;
23682;SDS011;24897;53.514;10.482;2023-09-30T15:07:38;18.27;;;16.43;;
23682;SDS011;24897;53.514;10.482;2023-09-30T15:10:22;19.83;;;16.17;;
23682;SDS011;24897;53.514;10.482;2023-09-30T15:13:07;19.57;;;16.67;;
23682;SDS011;24897;53.514;10.482;2023-09-30T15:15:52;18.83;;;16.70;;
23682;SDS011;24897;53.514;10.482;2023-09-30T15:18:36;20.53;;;16.77;;
23682;SDS011;24897;53.514;10.482;2023-09-30T15:21:20;26.00;;;22.43;;
23682;SDS011;24897;53.514;10.482;2023-09-30T15:24:04;21.07;;;18.10;;
23682;SDS011;24897;53.514;10.482;2023-09-30T15:26:49;18.37;;;16.50;;
23682;SDS011;24897;53.514;10.482;2023-09-30T15:29:33;19.43;;;17.33;;
23682;SDS011;24897;53.514;10.482;2023-09-30T15:32:17;21.83;;;19.53;;
23682;SDS011;24897;53.514;10.482;2023-09-30T15:35:01;18.93;;;17.13;;
23682;SDS011;24897;53.514;10.482;2023-09-30T15:37:45;19.07;;;17.17;;
23682;SDS011;24897;53.514;10.482;2023-09-30T15:40:31;18.83;;;17.03;;
23682;SDS011;24897;53.514;10.482;2023-09-30T15:43:16;22.37;;;18.17;;
23682;SDS011;24897;53.514;10.482;2023-09-30T15:46:00;21.93;;;18.27;;
23682;SDS011;24897;53.514;10.482;2023-09-30T15:48:44;20.53;;;18.20;;
23682;SDS011;24897;53.514;10.482;2023-09-30T15:51:29;20.57;;;18.67;;
23682;SDS011;24897;53.514;10.482;2023-09-30T15:54:13;21.17;;;18.83;;
23682;SDS011;24897;53.514;10.482;2023-09-30T15:56:58;26.90;;;19.27;;
23682;SDS011;24897;53.514;10.482;2023-09-30T15:59:43;22.80;;;19.50;;
23682;SDS011;24897;53.514;10.482;2023-09-30T16:02:27;21.17;;;18.97;;
23682;SDS011;24897;53.514;10.482;2023-09-30T16:05:11;21.20;;;18.90;;
23682;SDS011;24897;53.514;10.482;2023-09-30T16:07:55;21.10;;;18.60;;
23682;SDS011;24897;53.514;10.482;2023-09-30T16:10:39;19.23;;;17.23;;